Time;durP1;ratioP1;P1;durP2;ratioP2;P2;SDS_P1;SDS_P2;PMS_P1;PMS_P2;Temp;Humidity;BMP_temperature;BMP_pressure;BME280_temperature;BME280_humidity;BME280_pressure;Samples;Min_cycle;Max_cycle;Signal;HPM_P1;HPM_P2
2021/03/15 00:00:45;;;;;;;3.65;1.40;;;;;;;3.23;81.06;100727.69;5035447;28;20112;-83
2021/03/15 00:03:12;;;;;;;3.45;1.50;;;;;;;3.16;81.68;100734.78;5042632;28;20506;-81
2021/03/15 00:05:37;;;;;;;5.97;1.65;;;;;;;3.34;80.88;100728.91;5035042;28;20671;-83
2021/03/15 00:08:04;;;;;;;4.13;1.92;;;;;;;3.30;81.05;100736.44;5034250;28;20037;-82
2021/03/15 00:10:30;;;;;;;4.38;1.90;;;;;;;3.37;80.71;100714.44;5031292;28;20065;-82
2021/03/15 00:12:55;;;;;;;3.83;2.30;;;;;;;3.43;80.59;100716.31;5035136;28;20029;-82
2021/03/15 00:15:22;;;;;;;3.20;1.80;;;;;;;3.41;80.76;100716.50;5028091;28;20040;-82
2021/03/15 00:17:48;;;;;;;5.03;1.77;;;;;;;3.48;80.38;100724.47;5053854;28;20268;-82
2021/03/15 00:20:16;;;;;;;3.15;1.60;;;;;;;3.42;80.87;100715.50;5032483;28;20345;-81
2021/03/15 00:22:43;;;;;;;2.55;1.85;;;;;;;3.40;80.97;100721.97;5024363;28;20021;-80
2021/03/15 00:25:10;;;;;;;4.70;1.98;;;;;;;3.36;81.16;100721.56;5040077;28;21021;-81
2021/03/15 00:27:36;;;;;;;4.90;1.88;;;;;;;3.33;80.93;100722.78;5041989;28;20029;-82
2021/03/15 00:30:04;;;;;;;4.10;1.77;;;;;;;3.34;80.95;100728.91;5028688;28;20418;-81
2021/03/15 00:32:30;;;;;;;2.63;1.75;;;;;;;3.31;81.42;100721.38;5025413;28;20025;-81
2021/03/15 00:34:55;;;;;;;7.18;2.17;;;;;;;3.27;81.29;100722.78;5037477;28;20036;-82
2021/03/15 00:37:21;;;;;;;3.25;1.60;;;;;;;3.32;80.87;100718.53;5030519;28;20024;-81
2021/03/15 00:39:46;;;;;;;4.00;1.63;;;;;;;3.33;80.64;100717.50;5029994;28;20398;-81
2021/03/15 00:42:12;;;;;;;3.28;2.03;;;;;;;3.19;81.64;100725.63;5039315;28;20018;-81
2021/03/15 00:44:37;;;;;;;4.57;1.70;;;;;;;3.17;81.92;100717.88;5028163;28;20025;-80
2021/03/15 00:47:03;;;;;;;6.68;1.70;;;;;;;3.21;81.65;100718.28;5018653;28;20040;-82
2021/03/15 00:49:29;;;;;;;5.45;2.35;;;;;;;3.21;81.40;100711.16;5019771;28;20098;-84
2021/03/15 00:51:55;;;;;;;6.20;2.00;;;;;;;3.28;81.08;100704.06;5035330;28;20021;-82
2021/03/15 00:54:21;;;;;;;3.78;1.80;;;;;;;3.19;82.08;100710.53;5032114;28;20279;-83
2021/03/15 00:56:47;;;;;;;1.95;1.75;;;;;;;3.23;81.55;100709.16;5037208;28;20103;-82
2021/03/15 00:59:13;;;;;;;4.90;1.77;;;;;;;3.19;81.68;100709.72;5047196;28;20026;-84
2021/03/15 01:01:39;;;;;;;6.28;2.10;;;;;;;3.21;81.17;100713.00;5037958;28;20537;-83
2021/03/15 01:04:05;;;;;;;10.23;2.65;;;;;;;3.27;81.42;100704.25;5042096;28;20421;-83
2021/03/15 01:06:31;;;;;;;6.95;2.10;;;;;;;3.19;81.90;100705.25;5034686;28;20021;-83
2021/03/15 01:08:56;;;;;;;4.13;2.35;;;;;;;3.19;81.79;100699.13;5022679;28;20029;-82
2021/03/15 01:11:24;;;;;;;5.22;1.70;;;;;;;3.26;81.00;100706.09;5027901;28;20510;-81
2021/03/15 01:13:50;;;;;;;4.95;2.30;;;;;;;3.19;81.40;100699.13;5029438;28;20041;-82
2021/03/15 01:16:15;;;;;;;4.03;2.35;;;;;;;3.18;81.58;100698.31;5023875;28;20110;-82
2021/03/15 01:18:41;;;;;;;4.47;1.77;;;;;;;3.24;81.01;100694.06;5033513;28;20044;-82
2021/03/15 01:21:06;;;;;;;7.00;2.38;;;;;;;3.19;81.64;100699.94;5018404;28;20601;-82
2021/03/15 01:23:32;;;;;;;5.63;2.10;;;;;;;3.19;81.44;100702.59;5032184;28;20131;-82
2021/03/15 01:25:57;;;;;;;7.40;2.65;;;;;;;3.09;82.37;100704.03;5043401;28;20037;-81
2021/03/15 01:28:23;;;;;;;3.33;2.20;;;;;;;3.06;82.58;100694.66;5041917;28;20055;-82
2021/03/15 01:30:49;;;;;;;2.90;1.85;;;;;;;3.12;82.19;100699.13;5027993;28;20036;-81
2021/03/15 01:33:15;;;;;;;5.35;2.00;;;;;;;3.23;81.61;100690.63;5027630;28;20229;-81
2021/03/15 01:35:41;;;;;;;4.30;2.17;;;;;;;3.25;81.56;100693.06;5027651;28;20033;-81
2021/03/15 01:38:07;;;;;;;4.75;2.35;;;;;;;3.17;82.31;100693.22;5021820;28;20028;-82
2021/03/15 01:40:37;;;;;;;2.70;2.03;;;;;;;3.18;81.99;100689.56;5030460;28;20033;-82
2021/03/15 01:43:03;;;;;;;5.75;2.38;;;;;;;3.24;81.75;100679.00;5038015;28;20025;-82
2021/03/15 01:45:29;;;;;;;3.53;2.40;;;;;;;3.30;81.13;100680.03;5026488;28;20025;-82
2021/03/15 01:47:54;;;;;;;4.88;2.15;;;;;;;3.24;81.62;100679.00;5025464;28;20044;-81
2021/03/15 01:50:21;;;;;;;6.35;2.15;;;;;;;3.26;81.92;100682.25;5042278;28;20120;-84
2021/03/15 01:52:48;;;;;;;6.93;2.00;;;;;;;3.27;81.63;100681.25;5046959;28;20032;-82
2021/03/15 01:55:16;;;;;;;6.38;2.67;;;;;;;3.28;81.28;100677.59;5032528;28;20604;-82
2021/03/15 01:57:42;;;;;;;6.45;2.40;;;;;;;3.19;82.40;100677.97;5030621;28;20033;-82
2021/03/15 02:00:10;;;;;;;6.25;2.35;;;;;;;3.17;82.52;100674.69;5030185;28;20100;-82
2021/03/15 02:02:39;;;;;;;3.28;1.88;;;;;;;3.18;82.03;100666.56;5031143;28;20020;-82
2021/03/15 02:05:06;;;;;;;6.30;2.30;;;;;;;3.12;82.41;100672.66;5030136;28;20028;-82
2021/03/15 02:07:31;;;;;;;4.57;2.17;;;;;;;3.05;82.68;100666.53;5044314;28;20033;-82
2021/03/15 02:09:58;;;;;;;4.93;2.30;;;;;;;3.03;82.55;100666.72;5026891;28;20549;-82
2021/03/15 02:12:45;;;;;;;5.80;2.42;;;;;;;3.07;82.68;100661.06;5033468;28;20039;-82
2021/03/15 02:15:38;;;;;;;3.25;2.10;;;;;;;3.04;82.56;100657.75;5025155;28;20042;-82
2021/03/15 02:18:16;;;;;;;6.63;2.20;;;;;;;3.13;82.24;100655.75;5026044;28;20186;-82
2021/03/15 02:20:59;;;;;;;4.15;1.88;;;;;;;3.19;81.62;100659.41;5035607;28;20029;-81
2021/03/15 02:23:39;;;;;;;5.50;2.17;;;;;;;3.15;82.11;100653.72;5034742;28;20024;-82
2021/03/15 02:26:35;;;;;;;5.65;2.65;;;;;;;3.22;81.50;100651.88;5024638;28;20037;-82
2021/03/15 02:29:25;;;;;;;6.20;2.63;;;;;;;3.26;81.49;100653.13;5033278;28;20392;-82
2021/03/15 02:32:05;;;;;;;5.10;2.25;;;;;;;3.19;81.75;100652.28;5021027;28;20512;-82
2021/03/15 02:34:59;;;;;;;5.15;2.38;;;;;;;3.22;81.79;100651.06;5034385;28;20025;-82
2021/03/15 02:37:36;;;;;;;6.50;2.90;;;;;;;3.18;81.88;100648.03;5019744;28;20140;-82
2021/03/15 02:40:09;;;;;;;6.10;2.05;;;;;;;3.23;81.91;100648.25;5033282;28;20037;-82
2021/03/15 02:42:37;;;;;;;5.45;2.50;;;;;;;3.24;81.35;100649.88;5018801;28;20040;-82
2021/03/15 02:45:04;;;;;;;7.35;2.42;;;;;;;3.26;81.55;100647.84;5023230;28;20123;-82
2021/03/15 02:47:31;;;;;;;3.22;2.15;;;;;;;3.29;80.83;100647.44;5017385;28;20033;-82
2021/03/15 02:50:03;;;;;;;6.53;2.43;;;;;;;3.30;81.36;100649.06;5017797;28;20025;-80
2021/03/15 02:52:31;;;;;;;4.90;2.05;;;;;;;3.28;81.44;100658.22;5015894;28;20127;-82
2021/03/15 02:55:00;;;;;;;6.40;2.30;;;;;;;3.25;81.85;100651.50;5019497;28;20064;-82
2021/03/15 02:57:28;;;;;;;5.55;2.47;;;;;;;3.33;81.38;100653.94;5024154;28;20035;-81
2021/03/15 02:59:56;;;;;;;6.25;2.38;;;;;;;3.26;81.61;100655.78;5021265;28;20107;-82
2021/03/15 03:02:23;;;;;;;4.30;2.78;;;;;;;3.15;82.48;100647.63;5020365;28;20108;-82
2021/03/15 03:04:49;;;;;;;6.18;2.92;;;;;;;3.23;82.10;100658.84;5022401;28;20024;-81
2021/03/15 03:07:22;;;;;;;10.60;3.25;;;;;;;3.19;82.55;100652.28;5019911;28;20032;-82
2021/03/15 03:09:48;;;;;;;8.20;3.28;;;;;;;3.19;82.63;100649.66;5019007;28;20040;-82
2021/03/15 03:12:17;;;;;;;5.45;2.75;;;;;;;3.23;82.32;100650.06;5038073;28;20036;-81
2021/03/15 03:14:45;;;;;;;9.98;3.08;;;;;;;3.29;81.94;100636.03;5021835;28;20542;-83
2021/03/15 03:17:12;;;;;;;8.77;3.30;;;;;;;3.22;82.42;100645.78;5028369;28;20064;-83
2021/03/15 03:19:40;;;;;;;6.13;3.33;;;;;;;3.18;82.76;100642.72;5036425;28;20107;-83
2021/03/15 03:22:07;;;;;;;7.70;3.42;;;;;;;3.12;82.80;100650.66;5037450;28;20021;-82
2021/03/15 03:24:34;;;;;;;6.60;3.40;;;;;;;3.18;82.66;100645.38;5021052;28;20025;-82
2021/03/15 03:27:01;;;;;;;5.22;3.38;;;;;;;3.18;82.93;100644.56;5022429;28;20387;-83
2021/03/15 03:29:27;;;;;;;7.80;3.47;;;;;;;3.21;82.67;100644.97;5025547;28;20055;-81
2021/03/15 03:31:55;;;;;;;8.68;3.15;;;;;;;3.27;82.28;100640.72;5019050;28;20381;-81
2021/03/15 03:34:21;;;;;;;11.20;3.20;;;;;;;3.24;82.49;100649.88;5022907;28;20541;-81
2021/03/15 03:36:46;;;;;;;5.53;2.90;;;;;;;3.24;82.61;100638.47;5026806;28;20033;-81
2021/03/15 03:39:13;;;;;;;7.95;3.83;;;;;;;3.32;82.01;100647.03;5026572;28;20025;-82
2021/03/15 03:41:40;;;;;;;7.07;3.60;;;;;;;3.32;82.09;100646.22;5024395;28;20666;-82
2021/03/15 03:44:08;;;;;;;15.32;3.90;;;;;;;3.33;81.86;100651.31;5024218;28;20160;-81
2021/03/15 03:46:34;;;;;;;6.78;3.22;;;;;;;3.33;81.83;100646.00;5020470;28;20032;-81
2021/03/15 03:49:01;;;;;;;9.70;3.45;;;;;;;3.37;81.75;100646.41;5018010;28;20025;-81
2021/03/15 03:51:31;;;;;;;7.90;3.30;;;;;;;3.38;81.45;100636.63;5020446;28;20511;-82
2021/03/15 03:54:09;;;;;;;6.38;3.03;;;;;;;3.41;81.28;100636.22;5019119;28;20043;-81
2021/03/15 03:56:41;;;;;;;7.18;3.10;;;;;;;3.37;81.76;100645.59;5026475;28;20083;-82
2021/03/15 03:59:08;;;;;;;10.75;4.15;;;;;;;3.41;81.62;100644.16;5036752;28;20421;-82
2021/03/15 04:01:41;;;;;;;5.15;2.53;;;;;;;3.50;80.94;100637.66;5034723;28;20484;-83
2021/03/15 04:04:10;;;;;;;8.55;3.05;;;;;;;3.41;81.54;100638.88;5028506;28;20025;-83
2021/03/15 04:06:36;;;;;;;9.60;3.30;;;;;;;3.47;81.06;100640.72;5033959;28;20052;-82
2021/03/15 04:09:10;;;;;;;7.78;3.22;;;;;;;3.56;80.30;100635.00;5032526;28;20468;-82
2021/03/15 04:11:42;;;;;;;8.00;3.30;;;;;;;3.50;80.92;100641.13;5025602;28;20040;-84
2021/03/15 04:14:09;;;;;;;7.00;3.28;;;;;;;3.42;81.02;100641.34;5032578;28;20025;-82
2021/03/15 04:16:38;;;;;;;7.60;3.05;;;;;;;3.53;80.47;100639.88;5033118;28;20032;-82
2021/03/15 04:19:06;;;;;;;5.95;2.75;;;;;;;3.44;81.27;100635.84;5034815;28;20033;-83
2021/03/15 04:21:34;;;;;;;8.32;3.42;;;;;;;3.41;81.07;100637.06;5037289;28;20260;-82
2021/03/15 04:24:01;;;;;;;10.30;3.67;;;;;;;3.53;80.10;100640.69;5033307;28;20026;-82
2021/03/15 04:26:27;;;;;;;12.50;3.38;;;;;;;3.45;80.71;100640.09;5047418;28;20039;-83
2021/03/15 04:28:54;;;;;;;8.73;3.17;;;;;;;3.41;80.91;100641.50;5038808;28;20036;-83
2021/03/15 04:31:21;;;;;;;7.95;3.50;;;;;;;3.42;80.89;100643.16;5032601;28;20028;-81
2021/03/15 04:33:47;;;;;;;8.82;3.45;;;;;;;3.58;79.90;100637.44;5037903;28;20035;-82
2021/03/15 04:36:15;;;;;;;7.13;3.85;;;;;;;3.49;80.47;100636.03;5033570;28;20013;-82
2021/03/15 04:38:42;;;;;;;15.07;4.05;;;;;;;3.34;81.57;100642.34;5038798;28;20139;-82
2021/03/15 04:41:09;;;;;;;8.77;2.67;;;;;;;3.36;81.24;100641.31;5035635;28;20036;-82
2021/03/15 04:43:38;;;;;;;9.10;3.10;;;;;;;3.44;80.59;100644.59;5054016;28;20091;-81
2021/03/15 04:46:04;;;;;;;7.45;3.47;;;;;;;3.41;80.84;100637.06;5033937;28;20048;-81
2021/03/15 04:48:30;;;;;;;12.02;3.70;;;;;;;3.36;81.20;100647.44;5032658;28;20029;-84
2021/03/15 04:51:01;;;;;;;10.43;3.00;;;;;;;3.46;80.31;100641.75;5031710;28;20093;-84
2021/03/15 04:53:28;;;;;;;12.43;3.47;;;;;;;3.41;80.47;100642.34;5038024;28;20086;-82
2021/03/15 04:55:57;;;;;;;6.72;2.75;;;;;;;3.51;80.39;100639.28;5034393;28;20055;-82
2021/03/15 04:58:24;;;;;;;8.07;2.65;;;;;;;3.49;80.07;100631.53;5031660;28;20048;-81
2021/03/15 05:00:52;;;;;;;11.18;3.80;;;;;;;3.44;79.88;100646.44;5028768;28;20025;-84
2021/03/15 05:03:19;;;;;;;10.27;3.03;;;;;;;3.47;80.04;100644.19;5037249;28;20022;-83
2021/03/15 05:05:46;;;;;;;9.02;2.92;;;;;;;3.39;80.26;100635.59;5035657;28;20041;-82
2021/03/15 05:08:16;;;;;;;5.95;2.90;;;;;;;3.37;80.14;100633.16;5046526;28;20510;-85
2021/03/15 05:10:46;;;;;;;7.80;2.80;;;;;;;3.41;79.87;100630.91;5030492;28;20036;-83
2021/03/15 05:13:13;;;;;;;6.18;2.47;;;;;;;3.40;80.18;100634.59;5040799;28;20611;-82
2021/03/15 05:15:39;;;;;;;4.53;2.65;;;;;;;3.47;79.88;100627.47;5029890;28;20021;-82
2021/03/15 05:18:10;;;;;;;7.95;4.13;;;;;;;3.42;79.92;100616.69;5038545;28;20697;-82
2021/03/15 05:20:36;;;;;;;12.15;3.40;;;;;;;3.47;79.84;100617.69;5051081;28;20044;-82
2021/03/15 05:23:03;;;;;;;14.45;3.45;;;;;;;3.39;79.90;100615.22;5027440;28;20030;-82
2021/03/15 05:25:31;;;;;;;6.40;2.95;;;;;;;3.33;79.94;100611.56;5026021;28;20030;-82
2021/03/15 05:27:58;;;;;;;6.82;2.40;;;;;;;3.16;80.56;100615.63;5022115;28;20662;-82
2021/03/15 05:30:25;;;;;;;6.93;2.67;;;;;;;3.17;80.62;100614.63;5029300;28;20045;-84
2021/03/15 05:32:52;;;;;;;7.25;2.53;;;;;;;3.11;80.78;100623.38;5033937;28;20092;-82
2021/03/15 05:35:19;;;;;;;8.98;2.75;;;;;;;3.15;80.63;100619.31;5047587;22;20450;-70
2021/03/15 05:37:48;;;;;;;6.97;2.67;;;;;;;3.13;80.71;100620.53;5019804;28;20052;-71
2021/03/15 05:40:20;;;;;;;10.35;2.75;;;;;;;3.09;81.17;100622.78;5024191;28;20119;-71
2021/03/15 05:42:45;;;;;;;9.95;2.58;;;;;;;3.02;81.45;100616.63;5020270;28;20066;-71
2021/03/15 05:45:23;;;;;;;4.97;2.83;;;;;;;3.08;81.43;100623.78;5015169;28;20033;-71
2021/03/15 05:48:41;;;;;;;9.57;2.67;;;;;;;3.12;80.97;100627.66;5032257;28;20035;-71
2021/03/15 05:51:34;;;;;;;6.55;2.85;;;;;;;3.25;80.65;100632.97;5031412;28;20105;-71
2021/03/15 05:54:27;;;;;;;5.45;2.70;;;;;;;3.41;79.64;100630.91;5020126;28;20037;-71
2021/03/15 05:57:23;;;;;;;8.48;3.33;;;;;;;3.44;80.37;100636.66;5032166;28;20099;-71
2021/03/15 06:00:26;;;;;;;9.32;3.22;;;;;;;3.59;79.28;100641.72;5034040;28;20039;-71
2021/03/15 06:03:12;;;;;;;14.35;3.42;;;;;;;3.60;79.34;100638.06;5035057;28;20128;-71
2021/03/15 06:05:44;;;;;;;9.43;3.65;;;;;;;3.52;79.92;100636.44;5031179;28;20028;-71
2021/03/15 06:08:22;;;;;;;11.02;3.83;;;;;;;3.49;80.32;100636.03;5013733;28;20060;-71
2021/03/15 06:11:21;;;;;;;11.05;3.50;;;;;;;3.58;79.88;100637.44;5014377;28;20026;-71
2021/03/15 06:13:47;;;;;;;11.63;2.60;;;;;;;3.62;79.56;100638.69;5012293;28;20037;-71
2021/03/15 06:16:15;;;;;;;10.48;3.42;;;;;;;3.69;79.21;100631.53;5029228;28;20029;-71
2021/03/15 06:18:40;;;;;;;14.13;6.22;;;;;;;3.66;79.77;100626.63;5028462;28;20033;-71
2021/03/15 06:21:10;;;;;;;8.00;3.55;;;;;;;3.61;80.45;100637.88;5020160;28;20518;-71
2021/03/15 06:23:37;;;;;;;8.70;2.92;;;;;;;3.54;81.04;100630.91;5027014;28;20483;-71
2021/03/15 06:26:03;;;;;;;5.90;3.67;;;;;;;3.49;81.76;100625.44;5034764;28;20036;-71
2021/03/15 06:28:29;;;;;;;16.33;3.97;;;;;;;3.59;81.42;100625.81;5025684;28;20033;-71
2021/03/15 06:30:55;;;;;;;13.05;3.83;;;;;;;3.58;81.35;100630.31;5030704;28;20276;-71
2021/03/15 06:33:21;;;;;;;13.02;4.00;;;;;;;3.78;80.03;100627.66;5012012;28;20029;-71
2021/03/15 06:35:56;;;;;;;9.73;3.55;;;;;;;3.88;79.43;100633.34;5034546;28;20029;-71
2021/03/15 06:38:23;;;;;;;10.70;3.47;;;;;;;3.86;80.11;100638.03;5016694;28;20276;-71
2021/03/15 06:40:49;;;;;;;10.63;4.78;;;;;;;3.73;80.85;100627.44;5014817;28;20067;-71
2021/03/15 06:43:18;;;;;;;13.40;4.53;;;;;;;3.83;80.28;100635.78;5032776;28;20033;-71
2021/03/15 06:45:52;;;;;;;12.20;4.82;;;;;;;3.78;80.76;100634.78;5010744;28;20491;-71
2021/03/15 06:48:21;;;;;;;12.13;4.05;;;;;;;3.81;80.52;100634.38;5016933;28;20030;-71
2021/03/15 06:50:48;;;;;;;13.15;4.97;;;;;;;3.75;80.26;100637.81;5029660;28;20033;-71
2021/03/15 06:53:13;;;;;;;11.65;4.50;;;;;;;3.81;80.50;100643.13;5029512;28;20394;-71
2021/03/15 06:55:42;;;;;;;16.60;4.40;;;;;;;3.86;79.97;100632.72;5026744;28;20200;-71
2021/03/15 06:58:33;;;;;;;8.70;4.55;;;;;;;3.88;80.04;100643.13;5025856;28;20499;-71
2021/03/15 07:01:21;;;;;;;12.88;4.90;;;;;;;3.91;79.37;100642.69;5030999;28;20511;-71
2021/03/15 07:03:49;;;;;;;13.35;4.43;;;;;;;3.93;79.43;100646.78;5026777;28;20379;-71
2021/03/15 07:06:18;;;;;;;19.77;6.15;;;;;;;3.92;79.20;100642.50;5029334;28;20542;-71
2021/03/15 07:08:43;;;;;;;15.07;3.70;;;;;;;3.95;79.41;100643.94;5026648;28;20033;-71
2021/03/15 07:11:24;;;;;;;13.20;5.32;;;;;;;3.87;79.62;100650.25;5030746;28;20469;-71
2021/03/15 07:13:50;;;;;;;12.45;4.72;;;;;;;3.94;79.60;100653.69;5027046;28;20029;-71
2021/03/15 07:16:30;;;;;;;13.35;4.80;;;;;;;3.96;79.28;100650.06;5018131;28;20028;-71
2021/03/15 07:19:01;;;;;;;10.40;3.78;;;;;;;3.97;78.97;100643.72;5014769;28;20036;-71
2021/03/15 07:21:37;;;;;;;14.10;4.70;;;;;;;3.91;78.83;100645.34;5015365;28;20022;-72
2021/03/15 07:24:07;;;;;;;19.60;5.32;;;;;;;3.78;78.62;100646.22;5029017;28;20071;-71
2021/03/15 07:26:33;;;;;;;14.32;5.10;;;;;;;3.88;78.09;100646.59;5026804;28;20029;-71
2021/03/15 07:28:59;;;;;;;15.32;4.93;;;;;;;3.72;78.09;100654.97;5016676;28;20039;-71
2021/03/15 07:31:31;;;;;;;12.80;4.30;;;;;;;3.99;77.15;100652.28;5016494;28;20491;-71
2021/03/15 07:33:57;;;;;;;10.73;5.28;;;;;;;4.06;76.39;100653.88;5011684;28;20071;-71
2021/03/15 07:36:30;;;;;;;12.57;4.75;;;;;;;4.13;76.27;100651.22;5020920;28;20037;-71
2021/03/15 07:38:58;;;;;;;8.70;4.10;;;;;;;4.13;76.01;100659.16;5017611;28;20151;-71
2021/03/15 07:41:24;;;;;;;14.50;5.05;;;;;;;4.25;75.52;100657.50;5016603;28;20391;-71
2021/03/15 07:43:51;;;;;;;7.88;3.15;;;;;;;4.42;75.09;100664.00;5019877;28;20033;-71
2021/03/15 07:46:28;;;;;;;10.05;3.83;;;;;;;4.52;74.42;100656.41;5029181;28;20586;-71
2021/03/15 07:48:58;;;;;;;10.13;4.55;;;;;;;4.48;74.16;100663.13;5014546;28;20192;-71
2021/03/15 07:51:35;;;;;;;13.38;4.43;;;;;;;4.46;73.86;100659.88;5018000;28;20028;-71
2021/03/15 07:54:09;;;;;;;10.05;3.88;;;;;;;4.33;73.94;100680.34;5031519;28;20384;-71
2021/03/15 07:56:36;;;;;;;12.77;4.18;;;;;;;4.25;74.08;100676.06;5019582;28;20281;-71
2021/03/15 07:59:02;;;;;;;11.77;4.10;;;;;;;4.46;73.43;100678.47;5013446;28;20029;-71
2021/03/15 08:01:28;;;;;;;5.38;3.28;;;;;;;4.54;72.81;100664.97;5016265;28;20256;-71
2021/03/15 08:03:53;;;;;;;7.78;3.83;;;;;;;4.63;72.20;100665.53;5031081;28;20055;-72
2021/03/15 08:06:21;;;;;;;10.32;3.85;;;;;;;4.57;72.69;100662.91;5020414;28;20016;-71
2021/03/15 08:08:48;;;;;;;7.90;3.92;;;;;;;4.68;71.98;100663.09;5028968;28;20037;-71
2021/03/15 08:11:15;;;;;;;12.75;4.18;;;;;;;4.69;71.57;100663.91;5017236;28;20033;-71
2021/03/15 08:13:48;;;;;;;5.85;3.53;;;;;;;4.93;71.07;100665.00;5032812;28;20033;-71
2021/03/15 08:16:14;;;;;;;12.32;4.68;;;;;;;4.97;71.38;100660.88;5017676;28;20152;-71
2021/03/15 08:18:46;;;;;;;6.35;3.13;;;;;;;5.00;70.04;100660.44;5022004;28;20418;-72
2021/03/15 08:21:18;;;;;;;9.10;3.75;;;;;;;4.80;70.56;100671.19;5030078;28;20029;-71
2021/03/15 08:23:46;;;;;;;11.38;3.20;;;;;;;4.83;71.42;100670.75;5020568;28;20115;-71
2021/03/15 08:26:13;;;;;;;9.48;3.78;;;;;;;4.99;70.41;100669.44;5029548;28;20490;-71
2021/03/15 08:28:42;;;;;;;7.82;2.95;;;;;;;5.18;70.32;100667.69;5032162;28;20040;-72
2021/03/15 08:31:28;;;;;;;9.18;3.58;;;;;;;5.10;69.12;100672.25;5034933;28;20375;-71
2021/03/15 08:33:54;;;;;;;8.18;3.00;;;;;;;5.05;69.52;100663.28;5033211;28;20038;-72
2021/03/15 08:36:21;;;;;;;11.05;3.22;;;;;;;5.16;69.08;100670.56;5031545;28;20056;-71
2021/03/15 08:38:46;;;;;;;8.93;3.05;;;;;;;5.08;69.09;100666.34;5030515;28;20025;-71
2021/03/15 08:41:21;;;;;;;9.43;3.13;;;;;;;5.03;69.57;100666.16;5032810;28;20087;-72
2021/03/15 08:43:49;;;;;;;6.63;3.85;;;;;;;5.15;69.25;100663.63;5036502;28;20037;-71
2021/03/15 08:46:24;;;;;;;8.23;3.30;;;;;;;5.11;69.58;100663.25;5021570;28;20115;-71
2021/03/15 08:48:58;;;;;;;7.43;3.10;;;;;;;5.08;69.58;100663.69;5021070;28;20029;-71
2021/03/15 08:51:32;;;;;;;9.68;3.28;;;;;;;4.96;69.97;100665.38;5031477;28;20033;-72
2021/03/15 08:53:58;;;;;;;6.00;2.58;;;;;;;5.09;69.53;100659.19;5033007;28;20029;-72
2021/03/15 08:56:23;;;;;;;7.30;3.17;;;;;;;5.16;69.55;100655.44;5019457;28;21082;-72
2021/03/15 08:58:51;;;;;;;9.07;3.63;;;;;;;4.96;69.12;100661.91;5033243;28;20100;-71
2021/03/15 09:01:27;;;;;;;11.23;3.63;;;;;;;5.08;69.37;100652.25;5019742;28;20064;-72
2021/03/15 09:03:56;;;;;;;10.45;3.20;;;;;;;5.11;69.09;100654.47;5035859;28;20036;-71
2021/03/15 09:06:30;;;;;;;9.25;3.17;;;;;;;4.99;69.01;100649.00;5032545;28;20025;-71
2021/03/15 09:09:09;;;;;;;8.75;2.88;;;;;;;5.20;68.92;100652.34;5028578;28;20061;-71
2021/03/15 09:11:35;;;;;;;5.25;2.38;;;;;;;5.44;68.92;100647.06;5032018;28;20103;-71
2021/03/15 09:14:30;;;;;;;8.48;4.10;;;;;;;5.09;69.03;100660.00;5032705;28;20129;-72
2021/03/15 09:17:19;;;;;;;10.10;3.47;;;;;;;5.30;69.25;100650.03;5031508;28;20036;-72
2021/03/15 09:19:49;;;;;;;8.60;3.25;;;;;;;5.62;68.39;100637.53;5005178;28;20510;-71
2021/03/15 09:22:27;;;;;;;13.15;4.45;;;;;;;5.56;67.29;100647.16;5031982;28;20124;-72
2021/03/15 09:24:54;;;;;;;10.07;3.95;;;;;;;6.02;66.56;100632.66;5028621;28;20092;-72
2021/03/15 09:27:19;;;;;;;10.48;2.60;;;;;;;6.24;65.77;100646.34;5030768;28;20049;-72
2021/03/15 09:30:12;;;;;;;5.50;2.72;;;;;;;6.21;64.09;100636.97;5031509;28;20065;-71
2021/03/15 09:32:48;;;;;;;4.30;2.70;;;;;;;6.40;63.79;100639.63;5034652;28;20055;-71
2021/03/15 09:35:19;;;;;;;11.57;2.80;;;;;;;6.45;63.58;100634.44;5032279;28;20684;-72
2021/03/15 09:38:06;;;;;;;7.43;2.78;;;;;;;6.95;62.50;100635.00;5013617;28;20035;-72
2021/03/15 09:40:45;;;;;;;6.88;2.40;;;;;;;7.24;61.66;100633.34;5030482;28;20107;-72
2021/03/15 09:43:23;;;;;;;5.45;2.63;;;;;;;7.00;60.46;100634.31;5015206;28;20546;-72
2021/03/15 09:46:04;;;;;;;8.77;2.72;;;;;;;7.04;60.35;100630.19;5030919;28;20048;-72
2021/03/15 09:48:32;;;;;;;8.23;3.13;;;;;;;7.26;60.27;100637.41;5028799;28;20029;-71
2021/03/15 09:51:00;;;;;;;12.02;2.50;;;;;;;7.42;60.16;100637.78;5033331;28;20049;-72
2021/03/15 09:53:26;;;;;;;3.22;2.28;;;;;;;7.23;60.05;100626.41;5035975;28;20024;-72
2021/03/15 09:56:12;;;;;;;10.75;3.10;;;;;;;7.35;59.85;100629.88;5030421;28;20025;-71
2021/03/15 09:58:38;;;;;;;8.82;2.67;;;;;;;7.81;59.26;100642.44;5018860;28;20878;-72
2021/03/15 10:01:14;;;;;;;6.75;2.58;;;;;;;8.01;59.14;100626.06;5012273;28;20390;-72
2021/03/15 10:03:39;;;;;;;9.45;4.40;;;;;;;7.96;59.20;100627.84;5028807;28;20029;-72
2021/03/15 10:06:05;;;;;;;7.82;3.05;;;;;;;7.95;58.89;100627.03;5032487;28;20098;-72
2021/03/15 10:08:32;;;;;;;5.40;2.42;;;;;;;7.74;58.93;100630.28;5026330;23;20908;-83
2021/03/15 10:10:58;;;;;;;11.15;3.50;;;;;;;7.25;60.76;100632.31;5027678;28;20051;-82
2021/03/15 10:13:24;;;;;;;6.85;3.50;;;;;;;7.38;61.00;100631.28;5027098;28;20037;-81
2021/03/15 10:15:50;;;;;;;9.02;3.35;;;;;;;7.87;59.92;100624.69;5024965;28;20041;-82
2021/03/15 10:18:20;;;;;;;8.00;3.58;;;;;;;8.07;58.84;100617.13;5038363;28;20075;-81
2021/03/15 10:20:47;;;;;;;7.72;3.33;;;;;;;8.15;58.70;100619.44;5030377;28;20080;-81
2021/03/15 10:23:15;;;;;;;5.85;3.40;;;;;;;8.32;58.19;100614.19;5041943;28;20055;-81
2021/03/15 10:25:52;;;;;;;5.88;2.83;;;;;;;7.76;57.24;100621.00;5028370;28;20055;-81
2021/03/15 10:28:18;;;;;;;7.38;3.00;;;;;;;8.04;57.19;100625.59;5024681;28;20025;-82
2021/03/15 10:30:43;;;;;;;7.22;2.38;;;;;;;7.78;57.78;100626.09;5033056;28;20025;-82
2021/03/15 10:33:11;;;;;;;6.57;2.60;;;;;;;7.76;57.65;100621.00;5030278;28;20040;-82
2021/03/15 10:35:39;;;;;;;3.50;2.05;;;;;;;7.96;56.63;100617.16;5025598;28;20029;-82
2021/03/15 10:38:05;;;;;;;5.78;2.90;;;;;;;7.66;57.55;100628.75;5028573;28;20021;-81
2021/03/15 10:40:31;;;;;;;7.13;2.85;;;;;;;7.71;56.82;100617.38;5027995;28;20498;-80
2021/03/15 10:42:57;;;;;;;5.57;2.88;;;;;;;7.80;56.88;100624.00;5030327;28;20037;-82
2021/03/15 10:45:26;;;;;;;7.03;2.67;;;;;;;7.89;57.25;100627.94;5027236;28;20021;-80
2021/03/15 10:47:58;;;;;;;7.18;3.00;;;;;;;8.10;57.20;100619.34;5025721;28;20032;-82
2021/03/15 10:50:23;;;;;;;8.13;3.03;;;;;;;7.84;55.39;100614.50;5028830;28;20033;-81
2021/03/15 10:52:50;;;;;;;7.40;3.40;;;;;;;8.04;55.04;100620.25;5046731;28;20028;-82
2021/03/15 10:55:18;;;;;;;5.03;2.60;;;;;;;8.16;55.05;100617.59;5020718;28;20398;-82
2021/03/15 10:58:07;;;;;;;7.90;2.53;;;;;;;8.54;55.07;100603.69;5027570;28;20036;-82
2021/03/15 11:00:36;;;;;;;4.28;2.42;;;;;;;8.93;52.46;100602.00;5025168;28;20094;-82
2021/03/15 11:03:02;;;;;;;6.45;2.20;;;;;;;9.25;52.41;100593.47;5042950;28;20025;-81
2021/03/15 11:05:28;;;;;;;6.18;2.60;;;;;;;8.72;53.12;100590.16;5026846;28;20021;-82
2021/03/15 11:07:53;;;;;;;6.68;3.13;;;;;;;8.87;54.41;100594.16;5026294;28;20086;-82
2021/03/15 11:10:28;;;;;;;10.10;3.05;;;;;;;8.45;54.70;100597.94;5025066;28;20044;-82
2021/03/15 11:12:56;;;;;;;5.20;2.83;;;;;;;8.22;55.22;100597.16;5027058;28;20033;-81
2021/03/15 11:15:32;;;;;;;5.57;2.78;;;;;;;8.30;54.77;100599.47;5019284;28;20021;-81
2021/03/15 11:18:03;;;;;;;7.53;2.80;;;;;;;9.14;54.20;100586.31;5027873;28;20124;-81
2021/03/15 11:20:56;;;;;;;5.93;3.08;;;;;;;9.34;53.99;100584.00;5034067;28;20029;-81
2021/03/15 11:23:31;;;;;;;5.93;2.53;;;;;;;9.22;53.89;100584.06;5030337;28;20029;-82
2021/03/15 11:26:07;;;;;;;4.78;3.10;;;;;;;9.31;52.67;100587.94;5032998;28;20128;-82
2021/03/15 11:28:35;;;;;;;8.02;2.63;;;;;;;9.89;51.86;100584.00;5023069;28;20040;-82
2021/03/15 11:31:01;;;;;;;7.22;2.95;;;;;;;9.71;52.08;100578.94;5031756;28;20029;-82
2021/03/15 11:33:28;;;;;;;6.53;2.35;;;;;;;9.26;51.75;100581.72;5030791;28;20570;-83
2021/03/15 11:35:56;;;;;;;5.80;2.20;;;;;;;9.21;50.83;100573.63;5034085;28;20115;-82
2021/03/15 11:38:24;;;;;;;3.47;1.90;;;;;;;9.77;49.53;100572.59;5027193;28;20039;-81
2021/03/15 11:40:50;;;;;;;5.43;2.20;;;;;;;9.78;48.11;100562.69;5026368;28;20117;-82
2021/03/15 11:43:16;;;;;;;5.80;2.17;;;;;;;9.95;48.87;100556.25;5043009;28;20467;-82
2021/03/15 11:45:43;;;;;;;5.90;2.40;;;;;;;10.04;48.33;100550.44;5032221;28;20063;-82